createdAt,value
2019-04-14T00:00:51.465Z,0.00
2019-04-14T00:01:50.798Z,0.00
2019-04-14T00:02:51.179Z,0.00
2019-04-14T00:03:50.739Z,0.00
2019-04-14T00:04:50.811Z,0.00
2019-04-14T00:05:51.674Z,0.00
2019-04-14T00:06:50.757Z,0.00
2019-04-14T00:07:51.719Z,0.00
2019-04-14T00:08:50.699Z,0.00
2019-04-14T00:09:51.962Z,0.00
2019-04-14T00:10:50.814Z,0.00
2019-04-14T00:11:50.715Z,0.00
2019-04-14T00:12:51.421Z,0.00
2019-04-14T00:13:50.639Z,0.00
2019-04-14T00:14:51.310Z,0.00
2019-04-14T00:15:52.066Z,0.00
2019-04-14T00:16:51.011Z,0.00
2019-04-14T00:17:50.613Z,0.00
2019-04-14T00:18:51.263Z,0.00
2019-04-14T00:19:50.579Z,0.00
2019-04-14T00:20:51.225Z,0.00
2019-04-14T00:21:50.599Z,0.00
2019-04-14T00:22:51.246Z,0.00
2019-04-14T00:23:50.558Z,0.00
2019-04-14T00:24:51.081Z,0.00
2019-04-14T00:25:50.568Z,0.00
2019-04-14T00:26:51.023Z,0.00
2019-04-14T00:27:50.539Z,0.00
2019-04-14T00:28:51.259Z,0.00
2019-04-14T00:29:50.457Z,0.00
2019-04-14T00:30:51.245Z,0.00
2019-04-14T00:31:52.179Z,0.00
2019-04-14T00:32:50.964Z,0.00
2019-04-14T00:33:50.443Z,0.00
2019-04-14T00:34:50.819Z,0.00
2019-04-14T00:35:51.571Z,0.00
2019-04-14T00:36:50.396Z,0.00
2019-04-14T00:37:51.127Z,0.00
2019-04-14T00:38:50.365Z,0.00
2019-04-14T00:39:51.150Z,0.00
2019-04-14T00:40:50.380Z,0.00
2019-04-14T00:41:55.187Z,0.00
2019-04-14T00:42:51.595Z,0.00
2019-04-14T00:43:50.594Z,0.00
2019-04-14T00:44:51.719Z,0.00
2019-04-14T00:45:53.525Z,0.00
2019-04-14T00:46:51.716Z,0.00
2019-04-14T00:48:00.553Z,0.00
2019-04-14T00:48:51.767Z,0.00
2019-04-14T00:49:50.904Z,0.00
2019-04-14T00:50:50.254Z,0.00
2019-04-14T00:51:50.726Z,0.00
2019-04-14T00:52:50.217Z,0.00
2019-04-14T00:53:51.287Z,0.00
2019-04-14T00:54:50.246Z,0.00
2019-04-14T00:55:51.108Z,0.00
2019-04-14T00:56:50.172Z,0.00
2019-04-14T00:57:50.885Z,0.00
2019-04-14T00:58:50.144Z,0.00
2019-04-14T00:59:50.871Z,0.00
2019-04-14T01:00:50.308Z,0.00
2019-04-14T01:01:50.514Z,0.00
2019-04-14T01:02:50.146Z,0.00
2019-04-14T01:03:50.531Z,0.00
2019-04-14T01:04:51.231Z,0.00
2019-04-14T01:05:50.358Z,0.00
2019-04-14T01:06:51.133Z,0.00
2019-04-14T01:07:50.143Z,0.00
2019-04-14T01:08:51.097Z,0.00
2019-04-14T01:09:51.017Z,0.00
2019-04-14T01:10:50.014Z,0.00
2019-04-14T01:11:50.977Z,0.00
2019-04-14T01:12:50.023Z,0.00
2019-04-14T01:13:50.819Z,0.00
2019-04-14T01:14:49.990Z,0.00
2019-04-14T01:15:59.687Z,0.00
2019-04-14T01:16:51.753Z,0.00
2019-04-14T01:17:50.665Z,0.00
2019-04-14T01:18:49.930Z,0.00
2019-04-14T01:19:50.624Z,0.00
2019-04-14T01:20:49.945Z,0.00
2019-04-14T01:21:50.294Z,0.00
2019-04-14T01:22:50.905Z,0.00
2019-04-14T01:23:50.169Z,0.00
2019-04-14T01:24:50.999Z,0.00
2019-04-14T01:25:49.988Z,0.00
2019-04-14T01:26:50.651Z,0.00
2019-04-14T01:27:49.842Z,0.00
2019-04-14T01:28:50.425Z,0.00
2019-04-14T01:29:49.834Z,0.00
2019-04-14T01:30:50.131Z,0.00
2019-04-14T01:31:49.795Z,0.00
2019-04-14T01:32:50.115Z,0.00
2019-04-14T01:33:49.814Z,0.00
2019-04-14T01:34:52.287Z,0.00
2019-04-14T01:35:50.903Z,0.00
2019-04-14T01:36:49.767Z,0.00
2019-04-14T01:37:50.665Z,0.00
2019-04-14T01:38:49.718Z,0.00
2019-04-14T01:39:50.235Z,0.00
2019-04-14T01:40:50.923Z,0.00
2019-04-14T01:41:49.959Z,0.00
2019-04-14T01:42:50.614Z,0.00
2019-04-14T01:43:49.735Z,0.00
2019-04-14T01:44:50.639Z,0.00
2019-04-14T01:46:02.411Z,0.00
2019-04-14T01:46:50.633Z,0.00
2019-04-14T01:47:49.617Z,0.00
2019-04-14T01:48:49.650Z,0.00
2019-04-14T01:49:50.782Z,0.00
2019-04-14T01:50:49.659Z,0.00
2019-04-14T01:51:50.615Z,0.00
2019-04-14T01:52:50.163Z,0.00
2019-04-14T01:53:49.562Z,0.00
2019-04-14T01:54:49.538Z,0.00
2019-04-14T01:55:50.518Z,0.00
2019-04-14T01:56:49.529Z,0.00
2019-04-14T01:57:50.304Z,0.00
2019-04-14T01:58:49.498Z,0.00
2019-04-14T01:59:50.344Z,0.00
2019-04-14T02:00:49.505Z,0.00
2019-04-14T02:01:49.918Z,0.00
2019-04-14T02:02:49.490Z,0.00
2019-04-14T02:03:49.861Z,0.00
2019-04-14T02:04:50.680Z,0.00
2019-04-14T02:05:49.654Z,0.00
2019-04-14T02:06:50.488Z,0.00
2019-04-14T02:07:49.476Z,0.00
2019-04-14T02:08:50.119Z,0.00
2019-04-14T02:09:49.385Z,0.00
2019-04-14T02:10:49.906Z,0.00
2019-04-14T02:11:49.368Z,0.00
2019-04-14T02:12:49.657Z,0.00
2019-04-14T02:13:50.724Z,0.00
2019-04-14T02:14:49.531Z,0.00
2019-04-14T02:15:50.552Z,0.00
2019-04-14T02:16:55.205Z,0.00
2019-04-14T02:17:50.303Z,0.00
2019-04-14T02:18:52.240Z,0.00
2019-04-14T02:19:50.274Z,0.00
2019-04-14T02:20:49.268Z,0.00
2019-04-14T02:21:49.914Z,0.00
2019-04-14T02:22:50.538Z,0.00
2019-04-14T02:23:49.829Z,0.00
2019-04-14T02:24:50.240Z,0.00
2019-04-14T02:25:49.472Z,0.00
2019-04-14T02:26:50.186Z,0.00
2019-04-14T02:27:49.390Z,0.00
2019-04-14T02:28:50.339Z,0.00
2019-04-14T02:29:49.523Z,0.00
2019-04-14T02:31:01.665Z,0.00
2019-04-14T02:32:17.898Z,0.00
2019-04-14T02:33:46.911Z,0.00
2019-04-14T02:36:22.020Z,0.00
2019-04-14T02:37:21.281Z,0.00
2019-04-14T02:38:23.339Z,0.00
2019-04-14T02:39:22.302Z,0.00
2019-04-14T02:40:20.836Z,0.00
2019-04-14T02:41:24.626Z,0.00
2019-04-14T02:42:27.685Z,0.00
2019-04-14T02:43:25.807Z,0.00
2019-04-14T02:45:19.428Z,0.00
2019-04-14T02:46:26.327Z,0.00
2019-04-14T02:48:33.415Z,0.00
2019-04-14T02:49:11.141Z,0.00
2019-04-14T02:50:13.883Z,0.00
2019-04-14T02:51:21.089Z,0.00
2019-04-14T02:53:39.489Z,0.00
2019-04-14T02:55:08.666Z,0.00
2019-04-14T02:56:21.826Z,0.00
2019-04-14T02:57:16.803Z,0.00
2019-04-14T02:58:20.124Z,0.00
2019-04-14T02:59:17.173Z,0.00
2019-04-14T03:00:25.760Z,0.00
2019-04-14T03:02:22.907Z,0.00
2019-04-14T03:04:13.473Z,0.00
2019-04-14T03:05:16.322Z,0.00
2019-04-14T03:06:14.612Z,0.00
2019-04-14T03:07:21.742Z,0.00
2019-04-14T03:08:17.039Z,0.00
2019-04-14T03:09:24.348Z,0.00
2019-04-14T03:10:22.267Z,0.00
2019-04-14T03:11:17.413Z,0.00
2019-04-14T03:12:16.927Z,0.00
2019-04-14T03:13:27.115Z,0.00
2019-04-14T03:14:19.636Z,0.00
2019-04-14T03:15:17.654Z,0.00
2019-04-14T03:17:21.380Z,0.00
2019-04-14T03:19:21.774Z,0.00
2019-04-14T03:20:22.471Z,0.00
2019-04-14T03:21:19.570Z,0.00
2019-04-14T03:23:17.154Z,0.00
2019-04-14T03:25:06.113Z,0.00
2019-04-14T03:27:18.206Z,0.00
2019-04-14T03:28:17.438Z,0.00
2019-04-14T03:29:19.253Z,0.00
2019-04-14T03:30:33.547Z,0.00
2019-04-14T03:31:52.493Z,0.00
2019-04-14T03:32:42.580Z,0.00
2019-04-14T03:33:32.587Z,0.00
2019-04-14T03:34:34.575Z,0.00
2019-04-14T03:38:18.922Z,0.00
2019-04-14T03:39:17.514Z,0.00
2019-04-14T03:40:18.604Z,0.00
2019-04-14T03:42:19.879Z,0.00
2019-04-14T03:43:19.463Z,0.00
2019-04-14T03:44:16.764Z,0.00
2019-04-14T03:45:26.086Z,0.00
2019-04-14T03:46:19.353Z,0.00
2019-04-14T03:49:24.542Z,0.00
2019-04-14T03:50:16.167Z,0.00
2019-04-14T03:51:17.465Z,0.00
2019-04-14T03:52:13.044Z,0.00
2019-04-14T03:53:27.632Z,0.00
2019-04-14T03:54:09.504Z,0.00
2019-04-14T03:55:09.431Z,0.00
2019-04-14T03:55:55.769Z,0.00
2019-04-14T03:56:49.289Z,0.00
2019-04-14T03:57:48.216Z,0.00
2019-04-14T03:58:48.672Z,0.00
2019-04-14T03:59:48.206Z,0.00
2019-04-14T04:00:49.149Z,0.00
2019-04-14T04:01:48.206Z,0.00
2019-04-14T04:02:48.809Z,0.00
2019-04-14T04:03:48.154Z,0.00
2019-04-14T04:04:48.843Z,0.00
2019-04-14T04:05:48.131Z,0.00
2019-04-14T04:06:48.584Z,0.00
2019-04-14T04:07:48.105Z,0.00
2019-04-14T04:08:48.537Z,0.00
2019-04-14T04:09:48.130Z,0.00
2019-04-14T04:10:48.689Z,4.00
2019-04-14T04:11:48.091Z,4.00
2019-04-14T04:12:48.696Z,0.00
2019-04-14T04:13:48.045Z,4.00
2019-04-14T04:14:48.556Z,4.00
2019-04-14T04:15:48.026Z,4.00
2019-04-14T04:16:48.358Z,4.00
2019-04-14T04:17:48.005Z,4.00
2019-04-14T04:18:58.806Z,8.00
2019-04-14T04:19:49.214Z,8.00
2019-04-14T04:20:48.003Z,8.00
2019-04-14T04:21:48.799Z,8.00
2019-04-14T04:22:47.988Z,12.00
2019-04-14T04:23:48.949Z,12.00
2019-04-14T04:24:47.935Z,16.00
2019-04-14T04:25:48.684Z,16.00
2019-04-14T04:26:47.912Z,16.00
2019-04-14T04:27:48.340Z,20.00
2019-04-14T04:28:47.885Z,20.00
2019-04-14T04:29:48.450Z,24.00
2019-04-14T04:30:47.875Z,24.00
2019-04-14T04:31:48.297Z,24.00
2019-04-14T04:32:47.883Z,28.00
2019-04-14T04:33:47.943Z,32.00
2019-04-14T04:34:49.036Z,36.00
2019-04-14T04:35:47.921Z,40.00
2019-04-14T04:36:48.758Z,44.00
2019-04-14T04:37:48.207Z,48.00
2019-04-14T04:38:48.771Z,56.00
2019-04-14T04:39:47.771Z,56.00
2019-04-14T04:40:48.570Z,64.00
2019-04-14T04:41:47.750Z,68.00
2019-04-14T04:42:48.380Z,76.00
2019-04-14T04:43:47.753Z,80.00
2019-04-14T04:44:48.727Z,88.00
2019-04-14T04:45:47.701Z,88.00
2019-04-14T04:46:48.393Z,96.00
2019-04-14T04:47:47.762Z,104.00
2019-04-14T04:49:00.067Z,104.00
2019-04-14T04:49:49.023Z,116.00
2019-04-14T04:50:47.749Z,120.00
2019-04-14T04:51:48.659Z,124.00
2019-04-14T04:52:47.629Z,128.00
2019-04-14T04:53:48.359Z,136.00
2019-04-14T04:54:47.606Z,140.00
2019-04-14T04:55:48.105Z,144.00
2019-04-14T04:56:47.599Z,148.00
2019-04-14T04:57:48.130Z,152.00
2019-04-14T04:58:48.062Z,156.00
2019-04-14T04:59:47.553Z,164.00
2019-04-14T05:00:50.974Z,168.00
2019-04-14T05:01:49.434Z,176.00
2019-04-14T05:02:48.453Z,184.00
2019-04-14T05:03:47.543Z,196.00
2019-04-14T05:04:48.392Z,200.00
2019-04-14T05:05:47.487Z,212.00
2019-04-14T05:06:48.336Z,220.00
2019-04-14T05:07:47.469Z,228.00
2019-04-14T05:08:48.076Z,240.00
2019-04-14T05:09:47.477Z,248.00
2019-04-14T05:10:48.113Z,252.00
2019-04-14T05:11:47.417Z,264.00
2019-04-14T05:12:47.936Z,276.00
2019-04-14T05:13:47.416Z,288.00
2019-04-14T05:14:47.995Z,304.00
2019-04-14T05:15:47.380Z,320.00
2019-04-14T05:16:48.482Z,344.00
2019-04-14T05:17:47.475Z,372.00
2019-04-14T05:18:47.347Z,400.00
2019-04-14T05:19:47.605Z,432.00
2019-04-14T05:20:47.405Z,460.00
2019-04-14T05:21:47.450Z,492.00
2019-04-14T05:22:48.559Z,508.00
2019-04-14T05:23:47.448Z,528.00
2019-04-14T05:24:48.507Z,540.00
2019-04-14T05:25:47.469Z,548.00
2019-04-14T05:26:48.384Z,556.00
2019-04-14T05:27:47.384Z,560.00
2019-04-14T05:28:48.381Z,564.00
2019-04-14T05:29:47.802Z,576.00
2019-04-14T05:30:48.291Z,588.00
2019-04-14T05:31:47.209Z,596.00
2019-04-14T05:32:47.971Z,592.00
2019-04-14T05:33:47.197Z,600.00
2019-04-14T05:34:47.894Z,612.00
2019-04-14T05:35:47.165Z,620.00
2019-04-14T05:36:47.836Z,628.00
2019-04-14T05:37:47.175Z,648.00
2019-04-14T05:38:47.426Z,672.00
2019-04-14T05:39:48.310Z,696.00
2019-04-14T05:40:47.527Z,712.00
2019-04-14T05:41:57.121Z,740.00
2019-04-14T05:42:48.084Z,764.00
2019-04-14T05:43:52.025Z,788.00
2019-04-14T05:44:49.337Z,804.00
2019-04-14T05:45:47.999Z,820.00
2019-04-14T05:46:47.078Z,840.00
2019-04-14T05:47:47.900Z,864.00
2019-04-14T05:48:47.162Z,896.00
2019-04-14T05:49:51.272Z,924.00
2019-04-14T05:50:49.021Z,956.00
2019-04-14T05:51:48.032Z,980.00
2019-04-14T05:52:47.177Z,1004.00
2019-04-14T05:53:48.017Z,1020.00
2019-04-14T05:54:47.177Z,1036.00
2019-04-14T05:55:48.140Z,1064.00
2019-04-14T05:56:47.096Z,1104.00
2019-04-14T05:57:48.028Z,1144.00
2019-04-14T05:58:47.172Z,1184.00
2019-04-14T05:59:46.902Z,1220.00
2019-04-14T06:00:46.892Z,1256.00
2019-04-14T06:01:46.884Z,1300.00
2019-04-14T06:02:46.918Z,1348.00
2019-04-14T06:03:47.525Z,1380.00
2019-04-14T06:04:48.148Z,1412.00
2019-04-14T06:05:46.832Z,1432.00
2019-04-14T06:06:46.843Z,1440.00
2019-04-14T06:07:46.862Z,1432.00
2019-04-14T06:08:46.802Z,1460.00
2019-04-14T06:09:46.821Z,1500.00
2019-04-14T06:10:46.844Z,1576.00
2019-04-14T06:11:46.772Z,1628.00
2019-04-14T06:12:46.802Z,1660.00
2019-04-14T06:13:46.758Z,1692.00
2019-04-14T06:14:46.762Z,1756.00
2019-04-14T06:15:46.774Z,1848.00
2019-04-14T06:16:46.749Z,1940.00
2019-04-14T06:17:46.772Z,2020.00
2019-04-14T06:18:46.698Z,2092.00
2019-04-14T06:19:46.691Z,2144.00
2019-04-14T06:20:46.691Z,2180.00
2019-04-14T06:21:46.670Z,2256.00
2019-04-14T06:22:46.680Z,2380.00
2019-04-14T06:23:46.647Z,2532.00
2019-04-14T06:24:46.661Z,2656.00
2019-04-14T06:25:46.630Z,2756.00
2019-04-14T06:26:46.610Z,2788.00
2019-04-14T06:27:46.601Z,2776.00
2019-04-14T06:28:46.629Z,2756.00
2019-04-14T06:29:46.579Z,2680.00
2019-04-14T06:30:46.601Z,2556.00
2019-04-14T06:31:46.559Z,2392.00
2019-04-14T06:32:46.557Z,2268.00
2019-04-14T06:33:46.654Z,2240.00
2019-04-14T06:34:46.529Z,2292.00
2019-04-14T06:35:46.509Z,2440.00
2019-04-14T06:36:46.507Z,2584.00
2019-04-14T06:37:46.517Z,2700.00
2019-04-14T06:38:46.519Z,3136.00
2019-04-14T06:39:46.479Z,3060.00
2019-04-14T06:40:46.458Z,2980.00
2019-04-14T06:41:46.488Z,3108.00
2019-04-14T06:42:46.498Z,3304.00
2019-04-14T06:43:49.191Z,3296.00
2019-04-14T06:44:46.425Z,3208.00
2019-04-14T06:45:46.403Z,3048.00
2019-04-14T06:46:46.427Z,2880.00
2019-04-14T06:47:46.430Z,2720.00
2019-04-14T06:48:46.368Z,2644.00
2019-04-14T06:49:49.156Z,2620.00
2019-04-14T06:50:46.650Z,2636.00
2019-04-14T06:51:46.384Z,2808.00
2019-04-14T06:52:47.007Z,3176.00
2019-04-14T06:53:46.328Z,3356.00
2019-04-14T06:54:46.414Z,3640.00
2019-04-14T06:55:46.305Z,4992.00
2019-04-14T06:56:46.352Z,5448.00
2019-04-14T06:57:46.322Z,4856.00
2019-04-14T06:58:46.280Z,5928.00
2019-04-14T06:59:46.279Z,7092.00
2019-04-14T07:00:46.254Z,9992.00
2019-04-14T07:01:46.287Z,11036.00
2019-04-14T07:02:48.089Z,8784.00
2019-04-14T07:03:46.253Z,9268.00
2019-04-14T07:04:46.248Z,8792.00
2019-04-14T07:05:46.206Z,9460.00
2019-04-14T07:06:46.225Z,9048.00
2019-04-14T07:07:56.537Z,8696.00
2019-04-14T07:08:47.157Z,10084.00
2019-04-14T07:09:46.204Z,10400.00
2019-04-14T07:10:46.140Z,13632.00
2019-04-14T07:11:46.194Z,19872.00
2019-04-14T07:12:46.228Z,22208.00
2019-04-14T07:13:48.194Z,22240.00
2019-04-14T07:14:46.144Z,21088.00
2019-04-14T07:15:46.126Z,20096.00
2019-04-14T07:16:46.079Z,21120.00
2019-04-14T07:17:46.084Z,21664.00
2019-04-14T07:18:46.098Z,21728.00
2019-04-14T07:19:46.073Z,18752.00
2019-04-14T07:20:46.062Z,19424.00
2019-04-14T07:21:46.024Z,16128.00
2019-04-14T07:22:46.016Z,13164.00
2019-04-14T07:23:47.341Z,11244.00
2019-04-14T07:24:46.035Z,10196.00
2019-04-14T07:25:46.007Z,9756.00
2019-04-14T07:26:45.974Z,10604.00
2019-04-14T07:27:45.963Z,9744.00
2019-04-14T07:28:56.153Z,9192.00
2019-04-14T07:29:46.964Z,8032.00
2019-04-14T07:30:45.933Z,7936.00
2019-04-14T07:31:45.939Z,13008.00
2019-04-14T07:32:45.934Z,17664.00
2019-04-14T07:33:45.895Z,20512.00
2019-04-14T07:34:45.883Z,21056.00
2019-04-14T07:35:45.937Z,21376.00
2019-04-14T07:36:45.875Z,17312.00
2019-04-14T07:37:45.869Z,16992.00
2019-04-14T07:38:45.843Z,20576.00
2019-04-14T07:39:45.886Z,20288.00
2019-04-14T07:40:45.851Z,18272.00
2019-04-14T07:41:45.834Z,11436.00
2019-04-14T07:42:45.794Z,11120.00
2019-04-14T07:43:45.782Z,14008.00
2019-04-14T07:44:45.773Z,13172.00
2019-04-14T07:45:45.824Z,13216.00
2019-04-14T07:46:45.746Z,13488.00
2019-04-14T07:47:45.743Z,12844.00
2019-04-14T07:48:45.762Z,12908.00
2019-04-14T07:49:45.717Z,13844.00
2019-04-14T07:50:45.706Z,24288.00
2019-04-14T07:51:45.742Z,14772.00
2019-04-14T07:52:45.770Z,11456.00
2019-04-14T07:53:45.712Z,12496.00
2019-04-14T07:54:45.663Z,16512.00
2019-04-14T07:55:45.653Z,17248.00
2019-04-14T07:56:45.662Z,18240.00
2019-04-14T07:57:45.663Z,18144.00
2019-04-14T07:58:45.651Z,27808.00
2019-04-14T07:59:45.611Z,34496.00
2019-04-14T08:00:45.637Z,31008.00
2019-04-14T08:01:45.593Z,28896.00
2019-04-14T08:02:45.603Z,33376.00
2019-04-14T08:03:45.563Z,32608.00
2019-04-14T08:04:45.553Z,24736.00
2019-04-14T08:05:45.573Z,18464.00
2019-04-14T08:06:45.543Z,15872.00
2019-04-14T08:07:45.546Z,15136.00
2019-04-14T08:08:45.522Z,14316.00
2019-04-14T08:09:45.538Z,12456.00
2019-04-14T08:10:45.523Z,9788.00
2019-04-14T08:11:45.492Z,17408.00
2019-04-14T08:12:45.523Z,13580.00
2019-04-14T08:13:45.492Z,10852.00
2019-04-14T08:14:45.488Z,9188.00
2019-04-14T08:15:45.522Z,20064.00
2019-04-14T08:16:45.455Z,8224.00
2019-04-14T08:17:45.418Z,12516.00
2019-04-14T08:18:45.425Z,10896.00
2019-04-14T08:19:45.393Z,11484.00
2019-04-14T08:20:45.419Z,11132.00
2019-04-14T08:21:45.405Z,30080.00
2019-04-14T08:22:45.363Z,14452.00
2019-04-14T08:23:45.368Z,8464.00
2019-04-14T08:24:45.333Z,8912.00
2019-04-14T08:25:45.354Z,11760.00
2019-04-14T08:26:45.354Z,15104.00
2019-04-14T08:27:45.312Z,15168.00
2019-04-14T08:28:45.290Z,14488.00
2019-04-14T08:29:45.282Z,18176.00
2019-04-14T08:30:45.264Z,21952.00
2019-04-14T08:31:45.317Z,29152.00
2019-04-14T08:32:45.252Z,34464.00
2019-04-14T08:33:45.243Z,37856.00
2019-04-14T08:34:45.243Z,10480.00
2019-04-14T08:35:45.234Z,12128.00
2019-04-14T08:36:45.273Z,10672.00
2019-04-14T08:37:45.194Z,13016.00
2019-04-14T08:38:45.227Z,12496.00
2019-04-14T08:39:45.172Z,15680.00
2019-04-14T08:40:45.152Z,15648.00
2019-04-14T08:41:45.208Z,14560.00
2019-04-14T08:42:45.140Z,14220.00
2019-04-14T08:43:45.122Z,11904.00
2019-04-14T08:44:45.122Z,11212.00
2019-04-14T08:45:45.131Z,15060.00
2019-04-14T08:46:45.151Z,17280.00
2019-04-14T08:47:45.080Z,16704.00
2019-04-14T08:48:45.072Z,10264.00
2019-04-14T08:49:45.094Z,16224.00
2019-04-14T08:50:45.062Z,13384.00
2019-04-14T08:51:45.081Z,12396.00
2019-04-14T08:52:45.073Z,13456.00
2019-04-14T08:53:45.022Z,12372.00
2019-04-14T08:54:45.015Z,16576.00
2019-04-14T08:55:44.999Z,16928.00
2019-04-14T08:56:45.040Z,14440.00
2019-04-14T08:57:44.971Z,16640.00
2019-04-14T08:58:44.963Z,18112.00
2019-04-14T08:59:44.982Z,15372.00
2019-04-14T09:00:44.957Z,14756.00
2019-04-14T09:01:44.985Z,16032.00
2019-04-14T09:02:44.971Z,14132.00
2019-04-14T09:03:44.956Z,10216.00
2019-04-14T09:04:44.986Z,10560.00
2019-04-14T09:05:44.891Z,10352.00
2019-04-14T09:06:44.881Z,11004.00
2019-04-14T09:07:44.867Z,9176.00
2019-04-14T09:08:44.891Z,8852.00
2019-04-14T09:09:44.863Z,12568.00
2019-04-14T09:10:44.839Z,14128.00
2019-04-14T09:11:44.842Z,11508.00
2019-04-14T09:12:44.815Z,10820.00
2019-04-14T09:13:44.852Z,8972.00
2019-04-14T09:14:56.322Z,8160.00
2019-04-14T09:15:45.777Z,8236.00
2019-04-14T09:16:44.819Z,16576.00
2019-04-14T09:17:44.756Z,10532.00
2019-04-14T09:18:44.783Z,43680.00
2019-04-14T09:19:44.731Z,34336.00
2019-04-14T09:20:52.202Z,16320.00
2019-04-14T09:21:45.713Z,12388.00
2019-04-14T09:22:44.772Z,11740.00
2019-04-14T09:23:44.691Z,9068.00
2019-04-14T09:24:44.710Z,9520.00
2019-04-14T09:25:44.672Z,13564.00
2019-04-14T09:26:44.673Z,11520.00
2019-04-14T09:27:44.671Z,8528.00
2019-04-14T09:28:44.689Z,7976.00
2019-04-14T09:29:44.653Z,7496.00
2019-04-14T09:30:44.611Z,7952.00
2019-04-14T09:31:44.617Z,8680.00
2019-04-14T09:32:44.591Z,9816.00
2019-04-14T09:33:44.648Z,10784.00
2019-04-14T09:34:44.572Z,11536.00
2019-04-14T09:35:44.563Z,11428.00
2019-04-14T09:36:44.564Z,9920.00
2019-04-14T09:37:44.540Z,6664.00
2019-04-14T09:38:44.573Z,6052.00
2019-04-14T09:39:44.550Z,6936.00
2019-04-14T09:40:44.508Z,9228.00
2019-04-14T09:41:44.499Z,10532.00
2019-04-14T09:42:44.510Z,10836.00
2019-04-14T09:43:44.500Z,9280.00
2019-04-14T09:44:44.463Z,6764.00
2019-04-14T09:45:44.485Z,5572.00
2019-04-14T09:46:44.506Z,5916.00
2019-04-14T09:47:44.424Z,6760.00
2019-04-14T09:48:44.501Z,7068.00
2019-04-14T09:49:44.410Z,6620.00
2019-04-14T09:50:44.391Z,7544.00
2019-04-14T09:51:44.471Z,8432.00
2019-04-14T09:52:44.371Z,8592.00
2019-04-14T09:53:44.360Z,7416.00
2019-04-14T09:54:44.389Z,6232.00
2019-04-14T09:55:44.380Z,6016.00
2019-04-14T09:56:44.332Z,6164.00
2019-04-14T09:57:44.383Z,7092.00
2019-04-14T09:58:44.344Z,8640.00
2019-04-14T09:59:44.299Z,9824.00
2019-04-14T10:00:44.318Z,10488.00
2019-04-14T10:01:44.308Z,10652.00
2019-04-14T10:02:44.290Z,9664.00
2019-04-14T10:03:44.301Z,10360.00
2019-04-14T10:04:44.252Z,11956.00
2019-04-14T10:05:44.230Z,10484.00
2019-04-14T10:06:44.253Z,9164.00
2019-04-14T10:07:44.232Z,8480.00
2019-04-14T10:08:44.274Z,9280.00
2019-04-14T10:09:44.201Z,10064.00
2019-04-14T10:10:44.180Z,9820.00
2019-04-14T10:11:48.823Z,9208.00
2019-04-14T10:12:45.199Z,9680.00
2019-04-14T10:13:44.194Z,10092.00
2019-04-14T10:14:44.131Z,9616.00
2019-04-14T10:15:44.144Z,9712.00
2019-04-14T10:16:44.134Z,9672.00
2019-04-14T10:17:44.133Z,9880.00
2019-04-14T10:18:44.121Z,9548.00
2019-04-14T10:19:44.081Z,9544.00
2019-04-14T10:20:44.084Z,9212.00
2019-04-14T10:21:44.071Z,9052.00
2019-04-14T10:22:44.055Z,9960.00
2019-04-14T10:23:44.085Z,8720.00
2019-04-14T10:24:44.041Z,9504.00
2019-04-14T10:25:44.014Z,9284.00
2019-04-14T10:26:44.023Z,9856.00
2019-04-14T10:27:44.030Z,7524.00
2019-04-14T10:28:44.001Z,6948.00
2019-04-14T10:29:44.040Z,7208.00
2019-04-14T10:30:44.000Z,8280.00
2019-04-14T10:31:43.951Z,10732.00
2019-04-14T10:32:43.940Z,11280.00
2019-04-14T10:33:43.930Z,11056.00
2019-04-14T10:34:43.920Z,10680.00
2019-04-14T10:35:43.950Z,8288.00
2019-04-14T10:36:43.899Z,9748.00
2019-04-14T10:37:43.890Z,7452.00
2019-04-14T10:38:43.908Z,7716.00
2019-04-14T10:39:43.860Z,8024.00
2019-04-14T10:40:43.901Z,8456.00
2019-04-14T10:41:43.841Z,9196.00
2019-04-14T10:42:43.831Z,8764.00
2019-04-14T10:43:43.820Z,8720.00
2019-04-14T10:44:43.840Z,9800.00
2019-04-14T10:45:43.799Z,8476.00
2019-04-14T10:46:43.792Z,8012.00
2019-04-14T10:47:43.779Z,8244.00
2019-04-14T10:48:43.799Z,9608.00
2019-04-14T10:49:43.755Z,12928.00
2019-04-14T10:50:43.747Z,10700.00
2019-04-14T10:51:43.773Z,10556.00
2019-04-14T10:52:43.741Z,9332.00
2019-04-14T10:53:43.711Z,9304.00
2019-04-14T10:54:43.707Z,8684.00
2019-04-14T10:55:43.701Z,8528.00
2019-04-14T10:56:43.683Z,8020.00
2019-04-14T10:57:43.725Z,7176.00
2019-04-14T10:58:43.679Z,5696.00
2019-04-14T10:59:43.640Z,4756.00
2019-04-14T11:00:43.707Z,4376.00
2019-04-14T11:01:43.629Z,5032.00
2019-04-14T11:02:43.611Z,6352.00
2019-04-14T11:03:43.624Z,7120.00
2019-04-14T11:04:43.589Z,8236.00
2019-04-14T11:05:43.629Z,8464.00
2019-04-14T11:06:43.569Z,8132.00
2019-04-14T11:07:43.559Z,7892.00
2019-04-14T11:08:43.550Z,7392.00
2019-04-14T11:09:43.542Z,5888.00
2019-04-14T11:10:43.561Z,5504.00
2019-04-14T11:11:43.519Z,5792.00
2019-04-14T11:12:43.539Z,5556.00
2019-04-14T11:13:43.499Z,4884.00
2019-04-14T11:14:43.518Z,4372.00
2019-04-14T11:15:43.468Z,3800.00
2019-04-14T11:16:43.468Z,3492.00
2019-04-14T11:17:43.458Z,3324.00
2019-04-14T11:18:43.451Z,3188.00
2019-04-14T11:19:43.465Z,2852.00
2019-04-14T11:20:43.418Z,2656.00
2019-04-14T11:21:43.407Z,2532.00
2019-04-14T11:22:43.411Z,2500.00
2019-04-14T11:23:43.382Z,2576.00
2019-04-14T11:24:43.369Z,2616.00
2019-04-14T11:25:43.413Z,2660.00
2019-04-14T11:26:43.363Z,2608.00
2019-04-14T11:27:43.370Z,2548.00
2019-04-14T11:28:43.324Z,2564.00
2019-04-14T11:29:43.329Z,2496.00
2019-04-14T11:30:43.317Z,2620.00
2019-04-14T11:31:43.289Z,2808.00
2019-04-14T11:32:43.321Z,3028.00
2019-04-14T11:33:43.340Z,3024.00
2019-04-14T11:34:43.270Z,2812.00
2019-04-14T11:35:43.250Z,2632.00
2019-04-14T11:36:43.239Z,2516.00
2019-04-14T11:37:43.281Z,2308.00
2019-04-14T11:38:43.218Z,2128.00
2019-04-14T11:39:43.199Z,2012.00
2019-04-14T11:40:43.220Z,1936.00
2019-04-14T11:41:43.191Z,1872.00
2019-04-14T11:42:52.125Z,1860.00
2019-04-14T11:43:44.200Z,1940.00
2019-04-14T11:44:43.150Z,1968.00
2019-04-14T11:45:43.184Z,2104.00
2019-04-14T11:46:43.133Z,2224.00
2019-04-14T11:47:43.119Z,2300.00
2019-04-14T11:48:43.150Z,2364.00
2019-04-14T11:49:43.097Z,2472.00
2019-04-14T11:50:43.111Z,2644.00
2019-04-14T11:51:54.654Z,2664.00
2019-04-14T11:52:44.068Z,2628.00
2019-04-14T11:53:43.088Z,2680.00
2019-04-14T11:54:43.140Z,2700.00
2019-04-14T11:55:43.044Z,2672.00
2019-04-14T11:56:43.029Z,2608.00
2019-04-14T11:57:43.040Z,2488.00
2019-04-14T11:58:47.291Z,2320.00
2019-04-14T11:59:42.993Z,2252.00
2019-04-14T12:00:42.987Z,2224.00
2019-04-14T12:01:42.977Z,2268.00
2019-04-14T12:02:43.010Z,2400.00
2019-04-14T12:03:42.949Z,2556.00
2019-04-14T12:04:42.994Z,2648.00
2019-04-14T12:05:42.999Z,2676.00
2019-04-14T12:06:42.932Z,2696.00
2019-04-14T12:07:42.958Z,2680.00
2019-04-14T12:08:45.499Z,2580.00
2019-04-14T12:09:42.918Z,2524.00
2019-04-14T12:10:42.882Z,2568.00
2019-04-14T12:11:42.859Z,2444.00
2019-04-14T12:12:42.880Z,2360.00
2019-04-14T12:13:42.867Z,2420.00
2019-04-14T12:14:42.861Z,2548.00
2019-04-14T12:15:42.822Z,2632.00
2019-04-14T12:16:42.806Z,2600.00
2019-04-14T12:17:42.813Z,2600.00
2019-04-14T12:18:42.801Z,2744.00
2019-04-14T12:19:42.775Z,2972.00
2019-04-14T12:20:42.808Z,3212.00
2019-04-14T12:21:42.759Z,3380.00
2019-04-14T12:22:42.767Z,3484.00
2019-04-14T12:23:42.730Z,3428.00
2019-04-14T12:24:42.758Z,3280.00
2019-04-14T12:25:42.707Z,3176.00
2019-04-14T12:26:42.709Z,3088.00
2019-04-14T12:27:42.707Z,3060.00
2019-04-14T12:28:42.901Z,3072.00
2019-04-14T12:29:43.315Z,3072.00
2019-04-14T12:30:42.654Z,3124.00
2019-04-14T12:31:42.636Z,3144.00
2019-04-14T12:32:42.680Z,3096.00
2019-04-14T12:33:42.616Z,2868.00
2019-04-14T12:34:42.663Z,2592.00
2019-04-14T12:35:42.596Z,2372.00
2019-04-14T12:36:42.626Z,2276.00
2019-04-14T12:37:42.626Z,2304.00
2019-04-14T12:38:42.589Z,2364.00
2019-04-14T12:39:42.561Z,2328.00
2019-04-14T12:40:42.540Z,2220.00
2019-04-14T12:41:42.564Z,2184.00
2019-04-14T12:42:42.558Z,2176.00
2019-04-14T12:43:42.583Z,2208.00
2019-04-14T12:44:42.498Z,2220.00
2019-04-14T12:45:42.498Z,2232.00
2019-04-14T12:46:42.498Z,2208.00